To NAV CANADA Home Page Login to a new session Search on AWWS site Disclaimer Vers la page française équivalente Tips FAQ What's new on the site To the Forecasts and Observations / NOTAM section To "File a Flight Plan" website Publications and other links Update of the User's profile FIC Telephone Numbers My Weather Data Folder Route Weather Data Regional Weather Data Local Weather Data To the Forecasts and Observations / NOTAM section
Request Generated 04/08/2020 at 09:17:52 UTC . Weather information available at that time is displayed.

METAR/TAF

TORONTO/BILLY BISHOP TORONTO CITY AIRPORT/ON    (show WxCam)

METAR CYTZ 080900Z AUTO 06006KT 9SM OVC028 07/04 A2960 RMK SLP027=
METAR CYTZ 080800Z AUTO 05006KT 9SM OVC037 07/04 A2959 RMK SLP024=
METAR CYTZ 080700Z AUTO 06007KT 9SM OVC028 06/04 A2961 RMK SLP029=

TAF CYTZ 080738Z 0808/0908 07008KT P6SM OVC030 TEMPO 0808/0810 4SM BR
BKN005 OVC015 PROB30 0808/0810 1SM -DZ BR OVC002
FM081000 07008KT 1SM -RA -DZ BR OVC002 TEMPO 0810/0814 2SM -DZ BR
OVC004
FM081400 10008KT 2SM -DZ BR OVC004
FM081700 13005KT 5SM BR OVC006
FM081900 12010KT P6SM FEW008 BKN015
FM082100 27010KT P6SM FEW020
FM090100 30008KT P6SM BKN030
FM090400 VRB03KT 4SM -SHRA BR BKN010 OVC030 PROB30 0905/0908
11/2SM SHRA BR OVC003
RMK FCST BASED ON AUTO OBS. NXT FCST BY 081400Z=
Your time UTC time
Weather data provided by Environment Canada and NAV CANADA